sensor_id;sensor_type;location;lat;lon;timestamp;temperature;humidity
6174;DHT22;3120;48.796;9.796;2022-12-11T00:00:41;0.40;99.90
6174;DHT22;3120;48.796;9.796;2022-12-11T00:03:07;0.30;99.90
6174;DHT22;3120;48.796;9.796;2022-12-11T00:05:33;0.40;99.90
6174;DHT22;3120;48.796;9.796;2022-12-11T00:07:59;0.30;99.90
6174;DHT22;3120;48.796;9.796;2022-12-11T00:10:25;0.30;99.90
6174;DHT22;3120;48.796;9.796;2022-12-11T00:12:51;0.30;99.90
6174;DHT22;3120;48.796;9.796;2022-12-11T00:15:16;0.30;99.90
6174;DHT22;3120;48.796;9.796;2022-12-11T00:17:42;1.60;99.90
6174;DHT22;3120;48.796;9.796;2022-12-11T00:20:09;0.30;99.90
6174;DHT22;3120;48.796;9.796;2022-12-11T00:22:40;0.30;99.90
6174;DHT22;3120;48.796;9.796;2022-12-11T00:25:06;0.30;99.90
6174;DHT22;3120;48.796;9.796;2022-12-11T00:27:32;0.30;99.90
6174;DHT22;3120;48.796;9.796;2022-12-11T00:29:58;0.20;99.90
6174;DHT22;3120;48.796;9.796;2022-12-11T00:32:23;0.20;99.90
6174;DHT22;3120;48.796;9.796;2022-12-11T00:34:49;0.20;99.90
6174;DHT22;3120;48.796;9.796;2022-12-11T00:37:15;0.10;99.90
6174;DHT22;3120;48.796;9.796;2022-12-11T00:39:40;0.10;99.90
6174;DHT22;3120;48.796;9.796;2022-12-11T00:42:07;0.10;99.90
6174;DHT22;3120;48.796;9.796;2022-12-11T00:44:33;0.10;99.90
6174;DHT22;3120;48.796;9.796;2022-12-11T00:46:59;1.30;99.90
6174;DHT22;3120;48.796;9.796;2022-12-11T00:49:24;0.20;99.90
6174;DHT22;3120;48.796;9.796;2022-12-11T00:51:50;0.20;99.90
6174;DHT22;3120;48.796;9.796;2022-12-11T00:54:16;0.20;99.90
6174;DHT22;3120;48.796;9.796;2022-12-11T00:56:41;0.20;99.90
6174;DHT22;3120;48.796;9.796;2022-12-11T00:59:07;0.30;99.90
6174;DHT22;3120;48.796;9.796;2022-12-11T01:01:33;0.20;99.90
6174;DHT22;3120;48.796;9.796;2022-12-11T01:03:58;0.20;99.90
6174;DHT22;3120;48.796;9.796;2022-12-11T01:06:26;0.30;99.90
6174;DHT22;3120;48.796;9.796;2022-12-11T01:08:52;0.30;99.90
6174;DHT22;3120;48.796;9.796;2022-12-11T01:11:39;0.30;99.90
6174;DHT22;3120;48.796;9.796;2022-12-11T01:14:05;0.30;99.90
6174;DHT22;3120;48.796;9.796;2022-12-11T01:16:31;0.40;99.90
6174;DHT22;3120;48.796;9.796;2022-12-11T01:18:57;0.40;99.90
6174;DHT22;3120;48.796;9.796;2022-12-11T01:21:23;0.30;99.90
6174;DHT22;3120;48.796;9.796;2022-12-11T01:23:49;0.30;99.90
6174;DHT22;3120;48.796;9.796;2022-12-11T01:26:15;0.30;99.90
6174;DHT22;3120;48.796;9.796;2022-12-11T01:28:41;0.30;99.90
6174;DHT22;3120;48.796;9.796;2022-12-11T01:31:12;0.30;99.90
6174;DHT22;3120;48.796;9.796;2022-12-11T01:33:38;0.30;99.90
6174;DHT22;3120;48.796;9.796;2022-12-11T01:36:15;0.30;99.90
6174;DHT22;3120;48.796;9.796;2022-12-11T01:38:41;0.30;99.90
6174;DHT22;3120;48.796;9.796;2022-12-11T01:41:07;0.20;99.90
6174;DHT22;3120;48.796;9.796;2022-12-11T01:43:33;0.30;99.90
6174;DHT22;3120;48.796;9.796;2022-12-11T01:45:59;0.30;99.90
6174;DHT22;3120;48.796;9.796;2022-12-11T01:48:28;0.30;99.90
6174;DHT22;3120;48.796;9.796;2022-12-11T01:51:04;0.30;99.90
6174;DHT22;3120;48.796;9.796;2022-12-11T01:53:33;0.30;99.90
6174;DHT22;3120;48.796;9.796;2022-12-11T01:56:00;0.30;99.90
6174;DHT22;3120;48.796;9.796;2022-12-11T01:58:30;1.20;99.90
6174;DHT22;3120;48.796;9.796;2022-12-11T02:00:57;0.30;99.90
6174;DHT22;3120;48.796;9.796;2022-12-11T02:03:23;0.40;99.90
6174;DHT22;3120;48.796;9.796;2022-12-11T02:05:49;0.30;99.90
6174;DHT22;3120;48.796;9.796;2022-12-11T02:08:15;0.30;99.90
6174;DHT22;3120;48.796;9.796;2022-12-11T02:13:48;0.30;99.90
6174;DHT22;3120;48.796;9.796;2022-12-11T02:16:44;0.20;99.90
6174;DHT22;3120;48.796;9.796;2022-12-11T02:19:37;0.30;99.90
6174;DHT22;3120;48.796;9.796;2022-12-11T02:22:12;0.20;99.90
6174;DHT22;3120;48.796;9.796;2022-12-11T02:25:08;0.20;99.90
6174;DHT22;3120;48.796;9.796;2022-12-11T02:27:43;0.20;99.90
6174;DHT22;3120;48.796;9.796;2022-12-11T02:30:12;0.20;99.90
6174;DHT22;3120;48.796;9.796;2022-12-11T02:35:18;0.20;99.90
6174;DHT22;3120;48.796;9.796;2022-12-11T02:37:46;0.10;99.90
6174;DHT22;3120;48.796;9.796;2022-12-11T02:40:16;0.10;99.90
6174;DHT22;3120;48.796;9.796;2022-12-11T02:42:45;0.10;99.90
6174;DHT22;3120;48.796;9.796;2022-12-11T02:45:13;0.10;99.90
6174;DHT22;3120;48.796;9.796;2022-12-11T02:47:40;0.10;99.90
6174;DHT22;3120;48.796;9.796;2022-12-11T02:50:10;0.10;99.90
6174;DHT22;3120;48.796;9.796;2022-12-11T02:52:39;0.10;99.90
6174;DHT22;3120;48.796;9.796;2022-12-11T02:55:08;0.00;99.90
6174;DHT22;3120;48.796;9.796;2022-12-11T02:57:38;0.00;99.40
6174;DHT22;3120;48.796;9.796;2022-12-11T03:00:07;0.00;99.50
6174;DHT22;3120;48.796;9.796;2022-12-11T03:02:33;0.00;66.30
6174;DHT22;3120;48.796;9.796;2022-12-11T03:04:59;-0.10;1.00
6174;DHT22;3120;48.796;9.796;2022-12-11T03:07:28;-0.10;13.00
6174;DHT22;3120;48.796;9.796;2022-12-11T03:09:57;-0.10;1.00
6174;DHT22;3120;48.796;9.796;2022-12-11T03:12:31;-0.10;1.00
6174;DHT22;3120;48.796;9.796;2022-12-11T03:14:59;-0.20;1.00
6174;DHT22;3120;48.796;9.796;2022-12-11T03:17:41;-0.20;1.00
6174;DHT22;3120;48.796;9.796;2022-12-11T03:25:57;-0.10;1.00
6174;DHT22;3120;48.796;9.796;2022-12-11T03:30:52;-0.10;1.00
6174;DHT22;3120;48.796;9.796;2022-12-11T03:33:28;-0.10;1.00
6174;DHT22;3120;48.796;9.796;2022-12-11T03:36:00;-0.10;1.00
6174;DHT22;3120;48.796;9.796;2022-12-11T03:38:30;-0.20;1.00
6174;DHT22;3120;48.796;9.796;2022-12-11T03:41:00;-0.20;1.00
6174;DHT22;3120;48.796;9.796;2022-12-11T03:43:27;-0.20;1.00
6174;DHT22;3120;48.796;9.796;2022-12-11T03:45:54;-0.10;1.00
6174;DHT22;3120;48.796;9.796;2022-12-11T03:48:21;-0.10;1.00
6174;DHT22;3120;48.796;9.796;2022-12-11T03:50:49;-0.10;1.00
6174;DHT22;3120;48.796;9.796;2022-12-11T03:53:16;-0.10;1.00
6174;DHT22;3120;48.796;9.796;2022-12-11T03:55:43;-0.20;1.00
6174;DHT22;3120;48.796;9.796;2022-12-11T03:58:10;-0.20;1.00
6174;DHT22;3120;48.796;9.796;2022-12-11T04:00:36;-0.20;1.00
6174;DHT22;3120;48.796;9.796;2022-12-11T04:03:02;-0.20;1.00
6174;DHT22;3120;48.796;9.796;2022-12-11T04:05:45;-0.10;1.00
6174;DHT22;3120;48.796;9.796;2022-12-11T04:08:11;-0.10;1.00
6174;DHT22;3120;48.796;9.796;2022-12-11T04:10:38;-0.10;1.00
6174;DHT22;3120;48.796;9.796;2022-12-11T04:13:03;-0.10;1.00
6174;DHT22;3120;48.796;9.796;2022-12-11T04:15:29;-0.10;1.00
6174;DHT22;3120;48.796;9.796;2022-12-11T04:17:55;-0.10;1.00
6174;DHT22;3120;48.796;9.796;2022-12-11T04:20:39;-0.20;1.00
6174;DHT22;3120;48.796;9.796;2022-12-11T04:23:23;-0.20;1.00
6174;DHT22;3120;48.796;9.796;2022-12-11T04:26:14;-0.20;1.00
6174;DHT22;3120;48.796;9.796;2022-12-11T04:28:41;-0.20;1.00
6174;DHT22;3120;48.796;9.796;2022-12-11T04:31:15;-0.20;1.00
6174;DHT22;3120;48.796;9.796;2022-12-11T04:33:41;-0.20;1.00
6174;DHT22;3120;48.796;9.796;2022-12-11T04:36:08;-0.20;1.00
6174;DHT22;3120;48.796;9.796;2022-12-11T04:38:35;-0.20;1.00
6174;DHT22;3120;48.796;9.796;2022-12-11T04:41:03;-0.20;1.00
6174;DHT22;3120;48.796;9.796;2022-12-11T04:43:29;-0.20;1.00
6174;DHT22;3120;48.796;9.796;2022-12-11T04:48:31;-0.20;1.00
6174;DHT22;3120;48.796;9.796;2022-12-11T04:50:57;-0.30;1.00
6174;DHT22;3120;48.796;9.796;2022-12-11T04:53:23;-0.20;1.00
6174;DHT22;3120;48.796;9.796;2022-12-11T04:55:49;-0.20;1.00
6174;DHT22;3120;48.796;9.796;2022-12-11T04:58:15;-0.20;33.20
6174;DHT22;3120;48.796;9.796;2022-12-11T05:00:41;-0.20;28.20
6174;DHT22;3120;48.796;9.796;2022-12-11T05:03:06;-0.30;1.00
6174;DHT22;3120;48.796;9.796;2022-12-11T05:05:32;-0.30;51.30
6174;DHT22;3120;48.796;9.796;2022-12-11T05:07:58;-0.30;22.50
6174;DHT22;3120;48.796;9.796;2022-12-11T05:10:23;-0.30;50.00
6174;DHT22;3120;48.796;9.796;2022-12-11T05:12:49;-0.30;44.40
6174;DHT22;3120;48.796;9.796;2022-12-11T05:15:14;-0.30;40.90
6174;DHT22;3120;48.796;9.796;2022-12-11T05:17:40;-0.30;54.20
6174;DHT22;3120;48.796;9.796;2022-12-11T05:20:06;-0.30;35.60
6174;DHT22;3120;48.796;9.796;2022-12-11T05:22:32;-0.30;32.20
6174;DHT22;3120;48.796;9.796;2022-12-11T05:24:57;-0.20;62.00
6174;DHT22;3120;48.796;9.796;2022-12-11T05:27:23;-0.20;39.70
6174;DHT22;3120;48.796;9.796;2022-12-11T05:29:48;-0.30;57.00
6174;DHT22;3120;48.796;9.796;2022-12-11T05:32:14;-0.20;50.90
6174;DHT22;3120;48.796;9.796;2022-12-11T05:34:40;0.60;39.90
6174;DHT22;3120;48.796;9.796;2022-12-11T05:37:06;0.70;50.00
6174;DHT22;3120;48.796;9.796;2022-12-11T05:39:31;-0.20;81.50
6174;DHT22;3120;48.796;9.796;2022-12-11T05:41:57;-0.20;73.90
6174;DHT22;3120;48.796;9.796;2022-12-11T05:44:23;-0.20;62.40
6174;DHT22;3120;48.796;9.796;2022-12-11T05:46:48;-0.20;44.40
6174;DHT22;3120;48.796;9.796;2022-12-11T05:49:14;-0.20;65.40
6174;DHT22;3120;48.796;9.796;2022-12-11T05:51:40;-0.20;72.50
6174;DHT22;3120;48.796;9.796;2022-12-11T05:54:06;-0.20;81.80
6174;DHT22;3120;48.796;9.796;2022-12-11T05:56:33;-0.20;99.90
6174;DHT22;3120;48.796;9.796;2022-12-11T05:58:59;-0.10;92.50
6174;DHT22;3120;48.796;9.796;2022-12-11T06:01:27;-0.10;94.20
6174;DHT22;3120;48.796;9.796;2022-12-11T06:03:54;-0.10;94.30
6174;DHT22;3120;48.796;9.796;2022-12-11T06:06:20;-0.10;92.50
6174;DHT22;3120;48.796;9.796;2022-12-11T06:08:49;-0.10;91.10
6174;DHT22;3120;48.796;9.796;2022-12-11T06:11:14;-0.10;87.70
6174;DHT22;3120;48.796;9.796;2022-12-11T06:13:40;-0.10;75.40
6174;DHT22;3120;48.796;9.796;2022-12-11T06:16:07;-0.20;95.00
6174;DHT22;3120;48.796;9.796;2022-12-11T06:18:41;-0.20;90.90
6174;DHT22;3120;48.796;9.796;2022-12-11T06:21:28;-0.20;99.90
6174;DHT22;3120;48.796;9.796;2022-12-11T06:23:56;-0.20;99.90
6174;DHT22;3120;48.796;9.796;2022-12-11T06:26:22;-0.30;99.90
6174;DHT22;3120;48.796;9.796;2022-12-11T06:28:48;-0.30;99.90
6174;DHT22;3120;48.796;9.796;2022-12-11T06:31:14;-0.30;99.90
6174;DHT22;3120;48.796;9.796;2022-12-11T06:33:40;-0.40;99.90
6174;DHT22;3120;48.796;9.796;2022-12-11T06:36:09;0.50;99.90
6174;DHT22;3120;48.796;9.796;2022-12-11T06:38:35;-0.60;99.90
6174;DHT22;3120;48.796;9.796;2022-12-11T06:41:01;-0.60;99.90
6174;DHT22;3120;48.796;9.796;2022-12-11T06:43:29;-0.70;99.90
6174;DHT22;3120;48.796;9.796;2022-12-11T06:45:55;-0.80;99.90
6174;DHT22;3120;48.796;9.796;2022-12-11T06:48:21;-0.80;99.90
6174;DHT22;3120;48.796;9.796;2022-12-11T06:50:46;-0.90;99.90
6174;DHT22;3120;48.796;9.796;2022-12-11T06:53:14;-1.00;99.90
6174;DHT22;3120;48.796;9.796;2022-12-11T06:55:41;-1.10;99.90
6174;DHT22;3120;48.796;9.796;2022-12-11T06:58:07;-1.10;99.90
6174;DHT22;3120;48.796;9.796;2022-12-11T07:00:36;-0.30;99.90
6174;DHT22;3120;48.796;9.796;2022-12-11T07:03:03;-1.00;99.90
6174;DHT22;3120;48.796;9.796;2022-12-11T07:05:30;-0.90;99.90
6174;DHT22;3120;48.796;9.796;2022-12-11T07:07:55;0.00;99.90
6174;DHT22;3120;48.796;9.796;2022-12-11T07:10:21;-0.80;99.90
6174;DHT22;3120;48.796;9.796;2022-12-11T07:12:47;-0.70;99.90
6174;DHT22;3120;48.796;9.796;2022-12-11T07:15:12;-0.60;99.90
6174;DHT22;3120;48.796;9.796;2022-12-11T07:17:38;-0.50;99.90
6174;DHT22;3120;48.796;9.796;2022-12-11T07:20:04;-0.40;99.90
6174;DHT22;3120;48.796;9.796;2022-12-11T07:22:30;-0.40;99.90
6174;DHT22;3120;48.796;9.796;2022-12-11T07:24:55;-0.40;99.90
6174;DHT22;3120;48.796;9.796;2022-12-11T07:27:21;-0.40;99.90
6174;DHT22;3120;48.796;9.796;2022-12-11T07:29:47;-0.40;99.90
6174;DHT22;3120;48.796;9.796;2022-12-11T07:32:12;-0.40;99.90
6174;DHT22;3120;48.796;9.796;2022-12-11T07:34:38;-0.30;99.90
6174;DHT22;3120;48.796;9.796;2022-12-11T07:37:05;-0.30;99.90
6174;DHT22;3120;48.796;9.796;2022-12-11T07:39:30;1.70;99.90
6174;DHT22;3120;48.796;9.796;2022-12-11T07:41:56;-0.20;99.90
6174;DHT22;3120;48.796;9.796;2022-12-11T07:44:22;-0.20;99.90
6174;DHT22;3120;48.796;9.796;2022-12-11T07:46:47;-0.20;99.90
6174;DHT22;3120;48.796;9.796;2022-12-11T07:49:13;-0.20;99.90
6174;DHT22;3120;48.796;9.796;2022-12-11T07:51:38;-0.10;99.90
6174;DHT22;3120;48.796;9.796;2022-12-11T07:54:11;-0.10;99.90
6174;DHT22;3120;48.796;9.796;2022-12-11T07:56:43;-0.20;99.90
6174;DHT22;3120;48.796;9.796;2022-12-11T07:59:10;-0.10;99.90
6174;DHT22;3120;48.796;9.796;2022-12-11T08:01:37;-0.10;99.90
6174;DHT22;3120;48.796;9.796;2022-12-11T08:04:05;0.00;99.90
6174;DHT22;3120;48.796;9.796;2022-12-11T08:06:32;0.00;99.90
6174;DHT22;3120;48.796;9.796;2022-12-11T08:09:00;0.00;99.90
6174;DHT22;3120;48.796;9.796;2022-12-11T08:11:27;-0.10;99.90
6174;DHT22;3120;48.796;9.796;2022-12-11T08:13:53;0.00;99.90
6174;DHT22;3120;48.796;9.796;2022-12-11T08:16:18;0.00;99.90
6174;DHT22;3120;48.796;9.796;2022-12-11T08:18:45;0.00;99.90
6174;DHT22;3120;48.796;9.796;2022-12-11T08:21:16;0.00;99.90
6174;DHT22;3120;48.796;9.796;2022-12-11T08:23:43;0.00;99.90
6174;DHT22;3120;48.796;9.796;2022-12-11T08:26:12;0.00;99.10
6174;DHT22;3120;48.796;9.796;2022-12-11T08:28:38;0.00;80.50
6174;DHT22;3120;48.796;9.796;2022-12-11T08:31:05;0.00;91.70
6174;DHT22;3120;48.796;9.796;2022-12-11T08:33:31;0.10;70.20
6174;DHT22;3120;48.796;9.796;2022-12-11T08:35:57;0.20;30.30
6174;DHT22;3120;48.796;9.796;2022-12-11T08:38:23;0.20;2.90
6174;DHT22;3120;48.796;9.796;2022-12-11T08:40:48;1.70;19.30
6174;DHT22;3120;48.796;9.796;2022-12-11T08:43:14;0.30;1.00
6174;DHT22;3120;48.796;9.796;2022-12-11T08:45:39;0.30;1.00
6174;DHT22;3120;48.796;9.796;2022-12-11T08:48:05;0.30;1.00
6174;DHT22;3120;48.796;9.796;2022-12-11T08:50:31;0.30;1.00
6174;DHT22;3120;48.796;9.796;2022-12-11T08:52:57;0.40;1.00
6174;DHT22;3120;48.796;9.796;2022-12-11T08:55:22;0.40;1.00
6174;DHT22;3120;48.796;9.796;2022-12-11T08:57:48;0.40;23.30
6174;DHT22;3120;48.796;9.796;2022-12-11T09:00:14;0.50;5.00
6174;DHT22;3120;48.796;9.796;2022-12-11T09:02:40;0.50;1.00
6174;DHT22;3120;48.796;9.796;2022-12-11T09:05:06;0.40;1.00
6174;DHT22;3120;48.796;9.796;2022-12-11T09:07:35;0.30;13.70
6174;DHT22;3120;48.796;9.796;2022-12-11T09:10:01;0.30;18.40
6174;DHT22;3120;48.796;9.796;2022-12-11T09:12:27;0.20;51.50
6174;DHT22;3120;48.796;9.796;2022-12-11T09:14:53;0.20;12.30
6174;DHT22;3120;48.796;9.796;2022-12-11T09:17:19;0.30;39.60
6174;DHT22;3120;48.796;9.796;2022-12-11T09:19:47;0.40;51.40
6174;DHT22;3120;48.796;9.796;2022-12-11T09:22:13;0.30;5.10
6174;DHT22;3120;48.796;9.796;2022-12-11T09:24:38;2.00;1.00
6174;DHT22;3120;48.796;9.796;2022-12-11T09:27:05;0.50;1.00
6174;DHT22;3120;48.796;9.796;2022-12-11T09:29:31;0.40;1.00
6174;DHT22;3120;48.796;9.796;2022-12-11T09:31:56;0.40;1.00
6174;DHT22;3120;48.796;9.796;2022-12-11T09:34:22;0.40;1.00
6174;DHT22;3120;48.796;9.796;2022-12-11T09:36:48;0.40;1.00
6174;DHT22;3120;48.796;9.796;2022-12-11T09:39:15;0.50;1.00
6174;DHT22;3120;48.796;9.796;2022-12-11T09:44:37;0.50;1.00
6174;DHT22;3120;48.796;9.796;2022-12-11T09:49:43;0.50;1.00
6174;DHT22;3120;48.796;9.796;2022-12-11T09:54:47;0.50;1.00
6174;DHT22;3120;48.796;9.796;2022-12-11T09:57:25;1.70;1.00
6174;DHT22;3120;48.796;9.796;2022-12-11T10:00:00;0.60;1.00
6174;DHT22;3120;48.796;9.796;2022-12-11T10:02:45;0.70;1.00
6174;DHT22;3120;48.796;9.796;2022-12-11T10:05:24;0.60;1.00
6174;DHT22;3120;48.796;9.796;2022-12-11T10:08:05;0.40;1.00
6174;DHT22;3120;48.796;9.796;2022-12-11T10:10:43;0.40;1.00
6174;DHT22;3120;48.796;9.796;2022-12-11T10:18:30;0.40;1.00
6174;DHT22;3120;48.796;9.796;2022-12-11T10:21:00;0.30;1.00
6174;DHT22;3120;48.796;9.796;2022-12-11T10:23:50;0.40;1.00
6174;DHT22;3120;48.796;9.796;2022-12-11T10:26:20;0.40;1.00
6174;DHT22;3120;48.796;9.796;2022-12-11T10:28:46;0.40;1.00
6174;DHT22;3120;48.796;9.796;2022-12-11T10:31:37;0.30;1.00
6174;DHT22;3120;48.796;9.796;2022-12-11T10:34:14;0.40;1.00
6174;DHT22;3120;48.796;9.796;2022-12-11T10:36:47;0.50;1.00
6174;DHT22;3120;48.796;9.796;2022-12-11T10:39:19;0.50;1.00
6174;DHT22;3120;48.796;9.796;2022-12-11T10:41:47;0.50;1.00
6174;DHT22;3120;48.796;9.796;2022-12-11T10:44:28;0.60;1.00
6174;DHT22;3120;48.796;9.796;2022-12-11T10:47:12;0.50;1.00
6174;DHT22;3120;48.796;9.796;2022-12-11T10:49:43;0.50;1.00
6174;DHT22;3120;48.796;9.796;2022-12-11T10:52:25;0.50;1.00
6174;DHT22;3120;48.796;9.796;2022-12-11T10:55:05;0.50;1.00
6174;DHT22;3120;48.796;9.796;2022-12-11T10:57:35;0.40;1.00
6174;DHT22;3120;48.796;9.796;2022-12-11T11:00:03;0.50;1.00
6174;DHT22;3120;48.796;9.796;2022-12-11T11:02:38;0.50;1.00
6174;DHT22;3120;48.796;9.796;2022-12-11T11:05:24;0.60;1.00
6174;DHT22;3120;48.796;9.796;2022-12-11T11:08:17;0.70;1.00
6174;DHT22;3120;48.796;9.796;2022-12-11T11:10:55;0.60;1.00
6174;DHT22;3120;48.796;9.796;2022-12-11T11:13:24;0.70;1.00
6174;DHT22;3120;48.796;9.796;2022-12-11T11:16:00;0.80;1.00
6174;DHT22;3120;48.796;9.796;2022-12-11T11:18:28;0.70;1.00
6174;DHT22;3120;48.796;9.796;2022-12-11T11:20:55;0.90;1.00
6174;DHT22;3120;48.796;9.796;2022-12-11T11:23:21;0.90;1.00
6174;DHT22;3120;48.796;9.796;2022-12-11T11:25:57;0.90;1.00
6174;DHT22;3120;48.796;9.796;2022-12-11T11:28:33;1.00;1.00
6174;DHT22;3120;48.796;9.796;2022-12-11T11:31:05;0.80;1.00
6174;DHT22;3120;48.796;9.796;2022-12-11T11:33:34;1.20;1.00
6174;DHT22;3120;48.796;9.796;2022-12-11T11:36:05;0.80;1.00
6174;DHT22;3120;48.796;9.796;2022-12-11T11:38:35;0.90;1.00
6174;DHT22;3120;48.796;9.796;2022-12-11T11:41:14;0.90;1.00
6174;DHT22;3120;48.796;9.796;2022-12-11T11:43:48;0.90;1.00
6174;DHT22;3120;48.796;9.796;2022-12-11T11:46:36;0.80;1.00
6174;DHT22;3120;48.796;9.796;2022-12-11T11:49:31;0.90;1.00
6174;DHT22;3120;48.796;9.796;2022-12-11T11:52:28;0.80;1.00
6174;DHT22;3120;48.796;9.796;2022-12-11T11:55:08;1.10;1.00
6174;DHT22;3120;48.796;9.796;2022-12-11T11:58:02;1.00;1.00
6174;DHT22;3120;48.796;9.796;2022-12-11T12:00:30;1.00;1.00
6174;DHT22;3120;48.796;9.796;2022-12-11T12:03:00;1.10;1.00
6174;DHT22;3120;48.796;9.796;2022-12-11T12:08:16;1.10;1.00
6174;DHT22;3120;48.796;9.796;2022-12-11T12:10:59;3.30;1.00
6174;DHT22;3120;48.796;9.796;2022-12-11T12:16:32;0.90;1.00
6174;DHT22;3120;48.796;9.796;2022-12-11T12:19:15;0.90;1.00
6174;DHT22;3120;48.796;9.796;2022-12-11T12:21:48;0.90;1.00
6174;DHT22;3120;48.796;9.796;2022-12-11T12:27:00;0.80;1.00
6174;DHT22;3120;48.796;9.796;2022-12-11T12:30:22;0.80;1.00
6174;DHT22;3120;48.796;9.796;2022-12-11T12:35:47;0.70;1.00
6174;DHT22;3120;48.796;9.796;2022-12-11T12:39:09;0.70;1.00
6174;DHT22;3120;48.796;9.796;2022-12-11T12:41:13;1.30;1.00
6174;DHT22;3120;48.796;9.796;2022-12-11T12:44:12;0.80;6.90
6174;DHT22;3120;48.796;9.796;2022-12-11T12:46:59;0.90;1.00
6174;DHT22;3120;48.796;9.796;2022-12-11T12:49:42;0.80;1.00
6174;DHT22;3120;48.796;9.796;2022-12-11T12:52:29;0.90;1.00
6174;DHT22;3120;48.796;9.796;2022-12-11T12:54:58;1.00;1.00
6174;DHT22;3120;48.796;9.796;2022-12-11T13:00:08;1.10;1.00
6174;DHT22;3120;48.796;9.796;2022-12-11T13:02:56;1.20;1.00
6174;DHT22;3120;48.796;9.796;2022-12-11T13:05:31;1.20;1.00
6174;DHT22;3120;48.796;9.796;2022-12-11T13:08:04;2.60;1.00
6174;DHT22;3120;48.796;9.796;2022-12-11T13:10:36;1.30;99.90
6174;DHT22;3120;48.796;9.796;2022-12-11T13:13:03;1.20;99.90
6174;DHT22;3120;48.796;9.796;2022-12-11T13:15:39;1.20;99.90
6174;DHT22;3120;48.796;9.796;2022-12-11T13:18:37;1.20;1.00
6174;DHT22;3120;48.796;9.796;2022-12-11T13:21:33;1.20;99.90
6174;DHT22;3120;48.796;9.796;2022-12-11T13:24:32;1.30;1.00
6174;DHT22;3120;48.796;9.796;2022-12-11T13:27:10;1.10;99.90
6174;DHT22;3120;48.796;9.796;2022-12-11T13:29:42;1.10;1.00
6174;DHT22;3120;48.796;9.796;2022-12-11T13:34:39;1.00;1.00
6174;DHT22;3120;48.796;9.796;2022-12-11T13:37:16;1.00;1.00
6174;DHT22;3120;48.796;9.796;2022-12-11T13:39:46;1.10;1.00
6174;DHT22;3120;48.796;9.796;2022-12-11T13:42:23;1.10;1.00
6174;DHT22;3120;48.796;9.796;2022-12-11T13:44:54;1.10;99.90
6174;DHT22;3120;48.796;9.796;2022-12-11T13:47:20;1.00;1.00
6174;DHT22;3120;48.796;9.796;2022-12-11T13:49:49;0.90;1.00
6174;DHT22;3120;48.796;9.796;2022-12-11T13:52:22;0.90;99.90
6174;DHT22;3120;48.796;9.796;2022-12-11T13:54:54;0.90;99.90
6174;DHT22;3120;48.796;9.796;2022-12-11T13:57:25;1.00;99.90
6174;DHT22;3120;48.796;9.796;2022-12-11T13:59:55;1.00;99.90
6174;DHT22;3120;48.796;9.796;2022-12-11T14:02:34;1.00;99.90
6174;DHT22;3120;48.796;9.796;2022-12-11T14:05:08;1.00;99.90
6174;DHT22;3120;48.796;9.796;2022-12-11T14:07:52;0.90;99.90
6174;DHT22;3120;48.796;9.796;2022-12-11T14:10:27;0.90;99.90
6174;DHT22;3120;48.796;9.796;2022-12-11T14:13:03;0.70;1.00
6174;DHT22;3120;48.796;9.796;2022-12-11T14:15:31;0.70;99.90
6174;DHT22;3120;48.796;9.796;2022-12-11T14:17:59;2.70;90.10
6174;DHT22;3120;48.796;9.796;2022-12-11T14:20:28;-1.70;99.90
6174;DHT22;3120;48.796;9.796;2022-12-11T14:23:15;0.60;1.00
6174;DHT22;3120;48.796;9.796;2022-12-11T14:25:41;0.60;99.90
6174;DHT22;3120;48.796;9.796;2022-12-11T14:28:15;1.70;1.00
6174;DHT22;3120;48.796;9.796;2022-12-11T14:30:46;0.70;1.00
6174;DHT22;3120;48.796;9.796;2022-12-11T14:33:18;0.60;1.00
6174;DHT22;3120;48.796;9.796;2022-12-11T14:35:48;0.60;1.00
6174;DHT22;3120;48.796;9.796;2022-12-11T14:38:25;0.60;1.00
6174;DHT22;3120;48.796;9.796;2022-12-11T14:40:55;0.70;1.00
6174;DHT22;3120;48.796;9.796;2022-12-11T14:43:29;0.70;99.90
6174;DHT22;3120;48.796;9.796;2022-12-11T14:46:01;0.60;99.90
6174;DHT22;3120;48.796;9.796;2022-12-11T14:48:34;0.60;99.90
6174;DHT22;3120;48.796;9.796;2022-12-11T14:51:03;0.60;99.90
6174;DHT22;3120;48.796;9.796;2022-12-11T14:53:43;0.60;1.00
6174;DHT22;3120;48.796;9.796;2022-12-11T14:56:16;0.60;1.00
6174;DHT22;3120;48.796;9.796;2022-12-11T14:58:50;0.60;1.00
6174;DHT22;3120;48.796;9.796;2022-12-11T15:04:01;0.60;99.90
6174;DHT22;3120;48.796;9.796;2022-12-11T15:06:30;0.50;1.00
6174;DHT22;3120;48.796;9.796;2022-12-11T15:08:57;0.40;61.60
6174;DHT22;3120;48.796;9.796;2022-12-11T15:11:33;0.30;1.00
6174;DHT22;3120;48.796;9.796;2022-12-11T15:14:01;0.30;99.90
6174;DHT22;3120;48.796;9.796;2022-12-11T15:16:31;0.30;99.90
6174;DHT22;3120;48.796;9.796;2022-12-11T15:18:58;1.80;1.00
6174;DHT22;3120;48.796;9.796;2022-12-11T15:21:34;0.30;1.00
6174;DHT22;3120;48.796;9.796;2022-12-11T15:24:04;0.30;99.90
6174;DHT22;3120;48.796;9.796;2022-12-11T15:26:44;0.30;99.90
6174;DHT22;3120;48.796;9.796;2022-12-11T15:32:46;0.30;1.00
6174;DHT22;3120;48.796;9.796;2022-12-11T15:35:26;0.30;3.30
6174;DHT22;3120;48.796;9.796;2022-12-11T15:37:53;0.30;99.90
6174;DHT22;3120;48.796;9.796;2022-12-11T15:40:19;0.30;99.90
6174;DHT22;3120;48.796;9.796;2022-12-11T15:42:45;0.30;99.90
6174;DHT22;3120;48.796;9.796;2022-12-11T15:45:17;0.40;99.90
6174;DHT22;3120;48.796;9.796;2022-12-11T15:47:44;0.30;99.90
6174;DHT22;3120;48.796;9.796;2022-12-11T15:50:23;0.30;99.90
6174;DHT22;3120;48.796;9.796;2022-12-11T15:52:51;0.30;99.90
6174;DHT22;3120;48.796;9.796;2022-12-11T15:55:17;0.30;1.00
6174;DHT22;3120;48.796;9.796;2022-12-11T15:57:46;0.40;1.00
6174;DHT22;3120;48.796;9.796;2022-12-11T16:00:15;0.30;1.00
6174;DHT22;3120;48.796;9.796;2022-12-11T16:02:41;0.20;1.00
6174;DHT22;3120;48.796;9.796;2022-12-11T16:05:10;1.90;1.00
6174;DHT22;3120;48.796;9.796;2022-12-11T16:07:37;0.20;1.00
6174;DHT22;3120;48.796;9.796;2022-12-11T16:10:03;0.20;1.00
6174;DHT22;3120;48.796;9.796;2022-12-11T16:12:29;0.20;1.00
6174;DHT22;3120;48.796;9.796;2022-12-11T16:14:55;0.20;1.00
6174;DHT22;3120;48.796;9.796;2022-12-11T16:17:21;0.20;1.00
6174;DHT22;3120;48.796;9.796;2022-12-11T16:19:47;0.20;1.00
6174;DHT22;3120;48.796;9.796;2022-12-11T16:22:13;0.20;1.00
6174;DHT22;3120;48.796;9.796;2022-12-11T16:24:39;0.20;1.00
6174;DHT22;3120;48.796;9.796;2022-12-11T16:27:05;2.00;1.00
6174;DHT22;3120;48.796;9.796;2022-12-11T16:29:36;2.40;1.00
6174;DHT22;3120;48.796;9.796;2022-12-11T16:32:03;0.20;1.00
6174;DHT22;3120;48.796;9.796;2022-12-11T16:34:37;0.10;1.00
6174;DHT22;3120;48.796;9.796;2022-12-11T16:37:10;0.10;99.90
6174;DHT22;3120;48.796;9.796;2022-12-11T16:39:36;0.10;99.90
6174;DHT22;3120;48.796;9.796;2022-12-11T16:42:03;0.00;99.90
6174;DHT22;3120;48.796;9.796;2022-12-11T16:44:29;1.60;1.00
6174;DHT22;3120;48.796;9.796;2022-12-11T16:46:55;-0.10;1.00
6174;DHT22;3120;48.796;9.796;2022-12-11T16:49:22;-0.20;99.90
6174;DHT22;3120;48.796;9.796;2022-12-11T16:51:48;-0.20;1.00
6174;DHT22;3120;48.796;9.796;2022-12-11T16:54:14;-0.20;1.00
6174;DHT22;3120;48.796;9.796;2022-12-11T16:56:40;-0.40;1.00
6174;DHT22;3120;48.796;9.796;2022-12-11T16:59:06;-0.30;99.90
6174;DHT22;3120;48.796;9.796;2022-12-11T17:01:32;-0.30;1.00
6174;DHT22;3120;48.796;9.796;2022-12-11T17:03:58;1.40;1.00
6174;DHT22;3120;48.796;9.796;2022-12-11T17:06:24;-0.40;63.80
6174;DHT22;3120;48.796;9.796;2022-12-11T17:08:50;-0.40;99.90
6174;DHT22;3120;48.796;9.796;2022-12-11T17:11:20;-0.50;99.90
6174;DHT22;3120;48.796;9.796;2022-12-11T17:13:46;-0.70;99.90
6174;DHT22;3120;48.796;9.796;2022-12-11T17:16:15;-0.50;1.00
6174;DHT22;3120;48.796;9.796;2022-12-11T17:18:42;-0.50;99.90
6174;DHT22;3120;48.796;9.796;2022-12-11T17:21:17;-0.40;99.90
6174;DHT22;3120;48.796;9.796;2022-12-11T17:23:47;-0.40;1.00
6174;DHT22;3120;48.796;9.796;2022-12-11T17:26:14;1.40;99.90
6174;DHT22;3120;48.796;9.796;2022-12-11T17:28:40;-0.40;99.90
6174;DHT22;3120;48.796;9.796;2022-12-11T17:31:08;-0.30;99.90